Time;durP1;ratioP1;P1;durP2;ratioP2;P2;SDS_P1;SDS_P2;PMS_P1;PMS_P2;Temp;Humidity;BMP_temperature;BMP_pressure;BME280_temperature;BME280_humidity;BME280_pressure;Samples;Min_cycle;Max_cycle;Signal;HPM_P1;HPM_P2
2022/01/10 00:00:37;;;;;;;43.72;23.58;;;;;;;;;;5073802;28;20020;-66
2022/01/10 00:03:04;;;;;;;44.17;24.08;;;;;;;;;;5073317;28;20044;-66
2022/01/10 00:05:30;;;;;;;43.78;23.27;;;;;;;;;;5073455;28;20108;-66
2022/01/10 00:07:56;;;;;;;43.58;24.05;;;;;;;;;;5073695;28;20043;-67
2022/01/10 00:10:22;;;;;;;43.10;23.13;;;;;;;;;;5055672;28;20119;-67
2022/01/10 00:12:49;;;;;;;49.70;25.95;;;;;;;;;;5055654;28;20115;-67
2022/01/10 00:15:16;;;;;;;44.50;23.15;;;;;;;;;;5073544;28;20029;-66
2022/01/10 00:17:45;;;;;;;48.03;25.60;;;;;;;;;;5055551;28;20047;-66
2022/01/10 00:20:13;;;;;;;48.60;26.00;;;;;;;;;;5073464;28;20055;-67
2022/01/10 00:22:45;;;;;;;53.92;27.63;;;;;;;;;;5073383;28;20040;-67
2022/01/10 00:25:11;;;;;;;63.15;30.52;;;;;;;;;;5055443;28;20028;-67
2022/01/10 00:27:37;;;;;;;58.45;30.65;;;;;;;;;;5073350;28;20172;-67
2022/01/10 00:30:04;;;;;;;52.92;27.60;;;;;;;;;;5073337;28;20150;-66
2022/01/10 00:32:30;;;;;;;47.13;26.38;;;;;;;;;;5073286;28;20028;-67
2022/01/10 00:34:56;;;;;;;45.92;25.20;;;;;;;;;;5073256;28;20036;-66
2022/01/10 00:37:22;;;;;;;47.38;24.80;;;;;;;;;;5054987;28;20111;-66
2022/01/10 00:39:49;;;;;;;41.83;22.35;;;;;;;;;;5072869;28;20429;-66
2022/01/10 00:42:16;;;;;;;46.08;24.38;;;;;;;;;;5073430;28;20035;-66
2022/01/10 00:44:51;;;;;;;45.15;22.85;;;;;;;;;;5055246;28;20028;-67
2022/01/10 00:47:18;;;;;;;50.70;24.83;;;;;;;;;;5073182;28;20043;-66
2022/01/10 00:49:45;;;;;;;46.72;25.25;;;;;;;;;;5073082;28;20035;-66
2022/01/10 00:52:11;;;;;;;47.33;23.77;;;;;;;;;;5055031;28;20028;-68
2022/01/10 00:54:38;;;;;;;42.63;22.80;;;;;;;;;;5073350;28;20120;-66
2022/01/10 00:57:04;;;;;;;49.72;26.35;;;;;;;;;;5073034;28;20107;-66
2022/01/10 00:59:30;;;;;;;46.83;25.77;;;;;;;;;;5073249;28;20029;-66
2022/01/10 01:01:56;;;;;;;50.40;24.80;;;;;;;;;;5072589;28;20089;-66
2022/01/10 01:04:23;;;;;;;48.92;25.10;;;;;;;;;;5054664;28;20722;-65
2022/01/10 01:06:49;;;;;;;51.35;25.98;;;;;;;;;;5072994;28;20106;-63
2022/01/10 01:09:18;;;;;;;50.90;26.45;;;;;;;;;;5072910;28;20024;-66
2022/01/10 01:14:22;;;;;;;52.75;26.13;;;;;;;;;;5072779;28;20029;-68
2022/01/10 01:16:57;;;;;;;51.90;25.90;;;;;;;;;;5072931;28;20032;-66
2022/01/10 01:24:36;;;;;;;98.90;44.42;;;;;;;;;;5072563;28;20542;-67
2022/01/10 01:27:03;;;;;;;84.97;41.10;;;;;;;;;;5072905;28;20520;-67
2022/01/10 01:29:30;;;;;;;84.93;40.13;;;;;;;;;;5072750;28;20027;-67
2022/01/10 01:31:57;;;;;;;117.28;51.80;;;;;;;;;;5072554;28;20029;-67
2022/01/10 01:34:25;;;;;;;73.15;36.00;;;;;;;;;;5072684;28;20020;-67
2022/01/10 01:36:54;;;;;;;66.30;31.98;;;;;;;;;;5072778;28;20123;-65
2022/01/10 01:39:23;;;;;;;66.53;32.90;;;;;;;;;;5072610;28;20033;-66
2022/01/10 01:41:50;;;;;;;69.20;33.50;;;;;;;;;;5072533;28;20120;-66
2022/01/10 01:44:17;;;;;;;64.53;32.45;;;;;;;;;;5072556;28;20032;-67
2022/01/10 01:46:44;;;;;;;60.38;29.10;;;;;;;;;;5072596;28;20024;-67
2022/01/10 01:49:10;;;;;;;57.50;31.60;;;;;;;;;;5054532;28;20062;-66
2022/01/10 01:51:37;;;;;;;65.88;34.45;;;;;;;;;;5072478;28;20017;-66
2022/01/10 01:54:04;;;;;;;65.93;33.65;;;;;;;;;;5072762;28;20111;-66
2022/01/10 01:56:30;;;;;;;59.38;31.65;;;;;;;;;;5072735;28;20060;-65
2022/01/10 01:58:57;;;;;;;64.10;31.92;;;;;;;;;;5072442;28;20028;-65
2022/01/10 02:01:25;;;;;;;61.38;31.90;;;;;;;;;;5072434;28;20085;-65
2022/01/10 02:03:52;;;;;;;64.18;31.52;;;;;;;;;;5053608;28;20045;-65
2022/01/10 02:06:18;;;;;;;59.67;31.02;;;;;;;;;;5054432;28;20046;-65
2022/01/10 02:08:45;;;;;;;60.78;31.25;;;;;;;;;;5054307;28;20187;-65
2022/01/10 02:11:12;;;;;;;59.55;31.02;;;;;;;;;;5072506;28;20086;-65
2022/01/10 02:13:39;;;;;;;66.50;32.97;;;;;;;;;;5054254;28;20042;-65
2022/01/10 02:16:08;;;;;;;63.13;33.60;;;;;;;;;;5073683;28;20117;-65
2022/01/10 02:18:35;;;;;;;69.68;35.45;;;;;;;;;;5057825;28;20031;-65
2022/01/10 02:21:03;;;;;;;68.07;34.05;;;;;;;;;;5075748;28;20107;-65
2022/01/10 02:23:30;;;;;;;67.30;34.88;;;;;;;;;;5075617;28;20051;-65
2022/01/10 02:25:56;;;;;;;68.93;35.80;;;;;;;;;;5075676;28;20025;-64
2022/01/10 02:28:23;;;;;;;73.82;37.83;;;;;;;;;;5075645;28;20020;-65
2022/01/10 02:30:55;;;;;;;78.65;37.00;;;;;;;;;;5057594;28;20040;-64
2022/01/10 02:33:22;;;;;;;81.10;38.60;;;;;;;;;;5075590;28;20397;-64
2022/01/10 02:36:02;;;;;;;77.07;37.15;;;;;;;;;;5057450;28;20029;-64
2022/01/10 02:38:28;;;;;;;70.75;34.53;;;;;;;;;;5075762;28;20385;-64
2022/01/10 02:40:56;;;;;;;69.05;36.50;;;;;;;;;;5075395;28;20064;-64
2022/01/10 02:43:22;;;;;;;74.75;36.47;;;;;;;;;;5075561;28;20024;-65
2022/01/10 02:45:49;;;;;;;70.75;36.28;;;;;;;;;;5075336;28;20138;-65
2022/01/10 02:48:15;;;;;;;77.28;38.35;;;;;;;;;;5075279;28;20031;-65
2022/01/10 02:50:41;;;;;;;66.07;35.33;;;;;;;;;;5074975;28;20095;-63
2022/01/10 02:53:08;;;;;;;65.10;32.55;;;;;;;;;;5075155;28;20025;-67
2022/01/10 02:55:34;;;;;;;68.63;35.35;;;;;;;;;;5075182;28;20024;-64
2022/01/10 02:58:00;;;;;;;76.57;35.28;;;;;;;;;;5057016;28;20033;-66
2022/01/10 03:00:27;;;;;;;65.60;34.45;;;;;;;;;;5075020;28;20055;-67
2022/01/10 03:02:55;;;;;;;68.47;33.85;;;;;;;;;;5074437;28;20131;-66
2022/01/10 03:05:22;;;;;;;69.47;35.22;;;;;;;;;;5074910;28;20039;-66
2022/01/10 03:07:51;;;;;;;64.45;33.28;;;;;;;;;;5074818;28;20170;-65
2022/01/10 03:10:18;;;;;;;71.57;36.13;;;;;;;;;;5074801;28;20032;-64
2022/01/10 03:12:44;;;;;;;82.63;40.33;;;;;;;;;;5056827;28;20028;-66
2022/01/10 03:15:10;;;;;;;73.78;36.75;;;;;;;;;;5074670;28;20480;-65
2022/01/10 03:17:37;;;;;;;80.53;39.17;;;;;;;;;;5056766;28;20021;-66
2022/01/10 03:20:07;;;;;;;91.57;45.05;;;;;;;;;;5074669;28;20426;-66
2022/01/10 03:22:35;;;;;;;98.85;52.03;;;;;;;;;;5074573;28;20085;-66
2022/01/10 03:25:01;;;;;;;139.55;70.57;;;;;;;;;;5056515;28;20036;-66
2022/01/10 03:27:27;;;;;;;134.05;63.42;;;;;;;;;;5056378;28;20031;-69
2022/01/10 03:29:58;;;;;;;121.70;59.33;;;;;;;;;;5074482;28;20029;-68
2022/01/10 03:32:25;;;;;;;100.55;50.28;;;;;;;;;;5074128;28;20170;-68
2022/01/10 03:34:52;;;;;;;105.10;46.70;;;;;;;;;;5074292;28;20020;-67
2022/01/10 03:37:18;;;;;;;88.28;39.47;;;;;;;;;;5056335;28;20234;-68
2022/01/10 03:39:44;;;;;;;76.05;35.92;;;;;;;;;;5074224;28;20032;-68
2022/01/10 03:42:12;;;;;;;79.97;37.13;;;;;;;;;;5074137;28;20031;-68
2022/01/10 03:44:38;;;;;;;95.07;40.22;;;;;;;;;;5056126;28;20035;-69
2022/01/10 03:47:05;;;;;;;82.35;38.25;;;;;;;;;;5056095;28;20023;-69
2022/01/10 03:49:32;;;;;;;81.63;35.70;;;;;;;;;;5056052;28;20030;-67
2022/01/10 03:51:58;;;;;;;82.63;36.83;;;;;;;;;;5055999;28;20035;-66
2022/01/10 03:54:24;;;;;;;74.88;35.13;;;;;;;;;;5073914;28;20509;-66
2022/01/10 03:56:50;;;;;;;75.95;33.33;;;;;;;;;;5073900;28;20032;-66
2022/01/10 03:59:16;;;;;;;75.30;33.72;;;;;;;;;;5073882;28;20044;-67
2022/01/10 04:01:43;;;;;;;74.15;33.22;;;;;;;;;;5073731;28;20025;-67
2022/01/10 04:04:09;;;;;;;77.57;33.80;;;;;;;;;;5073279;28;20048;-67
2022/01/10 04:06:36;;;;;;;77.53;35.95;;;;;;;;;;5073793;28;20029;-67
2022/01/10 04:09:03;;;;;;;96.30;48.28;;;;;;;;;;5073682;28;20099;-67
2022/01/10 04:11:29;;;;;;;87.38;44.85;;;;;;;;;;5073583;28;20048;-67
2022/01/10 04:13:55;;;;;;;97.50;50.20;;;;;;;;;;5073692;28;20111;-67
2022/01/10 04:16:21;;;;;;;87.80;43.42;;;;;;;;;;5073518;28;20044;-67
2022/01/10 04:18:48;;;;;;;81.18;37.17;;;;;;;;;;5055477;28;20358;-66
2022/01/10 04:21:14;;;;;;;85.28;39.92;;;;;;;;;;5073460;28;20549;-67
2022/01/10 04:23:40;;;;;;;101.40;47.22;;;;;;;;;;5073333;28;20119;-67
2022/01/10 04:26:07;;;;;;;103.70;48.28;;;;;;;;;;5073438;28;20040;-67
2022/01/10 04:28:33;;;;;;;177.95;77.97;;;;;;;;;;5073628;28;20048;-67
2022/01/10 04:30:59;;;;;;;198.80;88.55;;;;;;;;;;5073313;28;20496;-68
2022/01/10 04:33:29;;;;;;;78.07;37.10;;;;;;;;;;5073312;28;20029;-67
2022/01/10 04:35:56;;;;;;;186.63;85.13;;;;;;;;;;5072914;28;20397;-67
2022/01/10 04:38:22;;;;;;;184.27;85.40;;;;;;;;;;5072811;28;20024;-67
2022/01/10 04:40:48;;;;;;;149.73;69.45;;;;;;;;;;5073176;28;20125;-68
2022/01/10 04:43:15;;;;;;;72.07;33.42;;;;;;;;;;5073201;28;20032;-67
2022/01/10 04:45:42;;;;;;;66.47;30.63;;;;;;;;;;5073120;28;20043;-67
2022/01/10 04:48:11;;;;;;;61.10;28.48;;;;;;;;;;5073177;28;20039;-67
2022/01/10 04:51:20;;;;;;;63.30;29.85;;;;;;;;;;5055118;28;20435;-68
2022/01/10 04:53:27;;;;;;;61.67;27.30;;;;;;;;;;5061800;28;20454;-68
2022/01/10 04:55:54;;;;;;;114.53;49.05;;;;;;;;;;5073038;28;20472;-67
2022/01/10 04:58:20;;;;;;;66.03;30.48;;;;;;;;;;5054999;28;20028;-67
2022/01/10 05:00:46;;;;;;;57.10;27.10;;;;;;;;;;5072795;28;20373;-68
2022/01/10 05:03:12;;;;;;;82.00;36.28;;;;;;;;;;5054383;28;20060;-67
2022/01/10 05:05:39;;;;;;;77.50;36.10;;;;;;;;;;5054881;28;20043;-67
2022/01/10 05:08:05;;;;;;;86.00;39.65;;;;;;;;;;5072960;28;20020;-68
2022/01/10 05:10:31;;;;;;;107.00;43.85;;;;;;;;;;5073114;28;20162;-68
2022/01/10 05:12:58;;;;;;;63.60;29.85;;;;;;;;;;5054929;28;20476;-67
2022/01/10 05:15:25;;;;;;;70.85;29.90;;;;;;;;;;5055065;28;20119;-67
2022/01/10 05:17:52;;;;;;;39.50;19.88;;;;;;;;;;5072883;28;20063;-67
2022/01/10 05:20:18;;;;;;;58.45;26.92;;;;;;;;;;5072800;28;20032;-68
2022/01/10 05:22:44;;;;;;;90.68;36.03;;;;;;;;;;5054691;28;20028;-67
2022/01/10 05:25:10;;;;;;;74.75;30.70;;;;;;;;;;5054675;28;20455;-69
2022/01/10 05:27:37;;;;;;;78.93;32.17;;;;;;;;;;5072844;28;20039;-67
2022/01/10 05:30:04;;;;;;;64.82;30.77;;;;;;;;;;5054696;28;20029;-68
2022/01/10 05:32:31;;;;;;;57.47;28.08;;;;;;;;;;5054694;28;20457;-67
2022/01/10 05:34:58;;;;;;;37.10;20.80;;;;;;;;;;5072706;28;20063;-67
2022/01/10 05:37:25;;;;;;;44.85;20.27;;;;;;;;;;5072646;28;20024;-67
2022/01/10 05:39:51;;;;;;;40.08;20.58;;;;;;;;;;5072620;28;20476;-67
2022/01/10 05:42:19;;;;;;;41.22;20.90;;;;;;;;;;5072499;28;20115;-68
2022/01/10 05:44:45;;;;;;;38.53;19.95;;;;;;;;;;5072568;28;20029;-67
2022/01/10 05:47:12;;;;;;;40.42;20.95;;;;;;;;;;5072518;28;20103;-68
2022/01/10 05:49:45;;;;;;;51.33;24.67;;;;;;;;;;5072274;28;20024;-67
2022/01/10 05:52:11;;;;;;;45.22;22.20;;;;;;;;;;5075983;28;20040;-68
2022/01/10 05:54:38;;;;;;;48.47;23.85;;;;;;;;;;5076283;28;20502;-68
2022/01/10 05:57:04;;;;;;;55.40;25.60;;;;;;;;;;5076204;28;20035;-67
2022/01/10 05:59:31;;;;;;;48.00;23.58;;;;;;;;;;5076150;28;20462;-67
2022/01/10 06:01:58;;;;;;;41.53;21.13;;;;;;;;;;5057761;28;20029;-66
2022/01/10 06:04:24;;;;;;;48.92;24.23;;;;;;;;;;5075586;28;20093;-67
2022/01/10 06:06:51;;;;;;;41.15;21.80;;;;;;;;;;5058038;28;20032;-67
2022/01/10 06:09:17;;;;;;;38.40;19.48;;;;;;;;;;5076026;28;20044;-67
2022/01/10 06:11:43;;;;;;;40.97;21.05;;;;;;;;;;5057898;28;20085;-67
2022/01/10 06:14:10;;;;;;;41.17;20.33;;;;;;;;;;5057989;28;20362;-67
2022/01/10 06:16:36;;;;;;;41.85;21.55;;;;;;;;;;5075817;28;20120;-66
2022/01/10 06:19:02;;;;;;;61.47;31.90;;;;;;;;;;5057850;28;20016;-66
2022/01/10 06:21:28;;;;;;;100.85;46.78;;;;;;;;;;5057694;28;20062;-68
2022/01/10 06:23:54;;;;;;;147.18;70.50;;;;;;;;;;5075539;28;20028;-67
2022/01/10 06:26:21;;;;;;;59.72;31.10;;;;;;;;;;5075080;28;20029;-66
2022/01/10 06:28:47;;;;;;;108.35;52.70;;;;;;;;;;5057258;28;20111;-66
2022/01/10 06:31:13;;;;;;;79.25;38.25;;;;;;;;;;5075560;28;20458;-67
2022/01/10 06:33:40;;;;;;;55.90;27.17;;;;;;;;;;5075496;28;20060;-66
2022/01/10 06:36:08;;;;;;;43.50;22.25;;;;;;;;;;5057353;28;20028;-66
2022/01/10 06:38:35;;;;;;;44.80;21.63;;;;;;;;;;5057433;28;20031;-67
2022/01/10 06:41:01;;;;;;;50.53;25.63;;;;;;;;;;5075340;28;20099;-67
2022/01/10 06:43:28;;;;;;;66.68;33.70;;;;;;;;;;5075113;28;20197;-66
2022/01/10 06:45:54;;;;;;;76.95;43.33;;;;;;;;;;5057096;28;20032;-67
2022/01/10 06:48:20;;;;;;;101.65;54.80;;;;;;;;;;5075209;28;20031;-69
2022/01/10 06:50:48;;;;;;;106.07;55.97;;;;;;;;;;5075069;28;20027;-68
2022/01/10 06:53:16;;;;;;;83.07;42.47;;;;;;;;;;5075104;28;20078;-68
2022/01/10 06:55:42;;;;;;;79.05;41.33;;;;;;;;;;5075269;28;20477;-68
2022/01/10 06:58:08;;;;;;;59.15;30.65;;;;;;;;;;5056972;28;20024;-69
2022/01/10 07:00:34;;;;;;;65.75;34.63;;;;;;;;;;5074891;28;20100;-68
2022/01/10 07:03:01;;;;;;;75.22;39.38;;;;;;;;;;5073926;28;20213;-67
2022/01/10 07:05:28;;;;;;;71.13;33.75;;;;;;;;;;5074872;28;20032;-69
2022/01/10 07:07:55;;;;;;;57.30;30.08;;;;;;;;;;5074840;28;20028;-69
2022/01/10 07:10:21;;;;;;;60.28;31.27;;;;;;;;;;5074733;28;20095;-69
2022/01/10 07:12:47;;;;;;;62.92;29.08;;;;;;;;;;5074912;28;20142;-68
2022/01/10 07:15:14;;;;;;;62.17;30.10;;;;;;;;;;5056699;28;20119;-68
2022/01/10 07:17:40;;;;;;;53.78;28.05;;;;;;;;;;5056362;28;20119;-70
2022/01/10 07:20:07;;;;;;;56.78;29.38;;;;;;;;;;5074277;28;20401;-69
2022/01/10 07:22:33;;;;;;;51.53;27.10;;;;;;;;;;5056395;28;20032;-68
2022/01/10 07:24:59;;;;;;;63.63;36.88;;;;;;;;;;5074444;28;20123;-69
2022/01/10 07:27:25;;;;;;;60.85;29.52;;;;;;;;;;5056523;28;20544;-69
2022/01/10 07:29:51;;;;;;;111.82;56.50;;;;;;;;;;5074401;28;20060;-69
2022/01/10 07:32:18;;;;;;;148.65;71.15;;;;;;;;;;5074127;28;20036;-69
2022/01/10 07:34:45;;;;;;;88.97;44.00;;;;;;;;;;5074335;28;20024;-68
2022/01/10 07:37:11;;;;;;;76.15;39.53;;;;;;;;;;5056205;28;20061;-70
2022/01/10 07:39:38;;;;;;;62.60;34.50;;;;;;;;;;5074158;28;20033;-66
2022/01/10 07:42:04;;;;;;;61.55;34.88;;;;;;;;;;5074047;28;20028;-69
2022/01/10 07:44:31;;;;;;;58.67;29.83;;;;;;;;;;5073745;28;20446;-69
2022/01/10 07:46:58;;;;;;;55.13;28.48;;;;;;;;;;5074008;28;20090;-69
2022/01/10 07:49:25;;;;;;;55.40;26.90;;;;;;;;;;5074023;28;20055;-67
2022/01/10 07:51:51;;;;;;;52.13;25.05;;;;;;;;;;5073944;28;20028;-67
2022/01/10 07:54:17;;;;;;;55.17;27.17;;;;;;;;;;5073719;28;20033;-67
2022/01/10 07:56:43;;;;;;;54.92;27.65;;;;;;;;;;5073996;28;20028;-66
2022/01/10 07:59:10;;;;;;;74.32;34.75;;;;;;;;;;5055784;28;20024;-66
2022/01/10 08:01:38;;;;;;;94.05;47.00;;;;;;;;;;5055768;28;20052;-66
2022/01/10 08:04:04;;;;;;;101.03;51.25;;;;;;;;;;5073534;28;20048;-68
2022/01/10 08:06:30;;;;;;;80.43;38.28;;;;;;;;;;5055578;28;20124;-68
2022/01/10 08:08:56;;;;;;;99.78;44.10;;;;;;;;;;5071204;28;20035;-68
2022/01/10 08:11:26;;;;;;;59.40;29.40;;;;;;;;;;5073453;28;20162;-68
2022/01/10 08:13:53;;;;;;;64.40;31.55;;;;;;;;;;5072944;28;20032;-69
2022/01/10 08:16:19;;;;;;;57.40;28.67;;;;;;;;;;5073651;28;20041;-70
2022/01/10 08:18:45;;;;;;;55.63;26.58;;;;;;;;;;5055361;28;20029;-70
2022/01/10 08:21:11;;;;;;;56.78;27.85;;;;;;;;;;5073003;28;20107;-69
2022/01/10 08:23:37;;;;;;;62.38;31.52;;;;;;;;;;5055163;28;20063;-71
2022/01/10 08:26:07;;;;;;;65.40;33.20;;;;;;;;;;5073139;28;20056;-68
2022/01/10 08:28:33;;;;;;;60.38;30.48;;;;;;;;;;5073145;28;20069;-68
2022/01/10 08:30:59;;;;;;;56.97;29.25;;;;;;;;;;5071847;28;20043;-69
2022/01/10 08:33:26;;;;;;;59.35;27.85;;;;;;;;;;5072311;28;20089;-69
2022/01/10 08:35:52;;;;;;;64.07;30.95;;;;;;;;;;5055041;28;20077;-69
2022/01/10 08:38:18;;;;;;;52.47;25.48;;;;;;;;;;5073088;28;20020;-69
2022/01/10 08:40:45;;;;;;;61.97;27.20;;;;;;;;;;5054941;28;20078;-69
2022/01/10 08:43:11;;;;;;;53.08;26.77;;;;;;;;;;5072628;28;20032;-69
2022/01/10 08:45:38;;;;;;;53.03;26.52;;;;;;;;;;5054770;28;20056;-69
2022/01/10 08:48:05;;;;;;;51.03;26.67;;;;;;;;;;5070315;28;20024;-71
2022/01/10 08:50:31;;;;;;;56.72;27.40;;;;;;;;;;5072809;28;20037;-69
2022/01/10 08:52:57;;;;;;;58.65;29.27;;;;;;;;;;5054932;28;20470;-70
2022/01/10 08:55:24;;;;;;;59.80;30.50;;;;;;;;;;5070515;28;20073;-69
2022/01/10 08:57:50;;;;;;;56.72;28.42;;;;;;;;;;5072816;28;20060;-68
2022/01/10 09:00:16;;;;;;;50.85;25.00;;;;;;;;;;5054984;28;20020;-71
2022/01/10 09:02:42;;;;;;;49.70;23.27;;;;;;;;;;5072572;28;20032;-68
2022/01/10 09:05:09;;;;;;;43.65;23.40;;;;;;;;;;5072939;28;20029;-69
2022/01/10 09:07:35;;;;;;;48.53;25.50;;;;;;;;;;5072759;28;20034;-68
2022/01/10 09:10:02;;;;;;;50.67;27.27;;;;;;;;;;5054841;28;20024;-68
2022/01/10 09:12:28;;;;;;;106.13;42.40;;;;;;;;;;5072758;28;20028;-69
2022/01/10 09:14:54;;;;;;;70.82;34.50;;;;;;;;;;5072800;28;20108;-68
2022/01/10 09:17:21;;;;;;;81.55;37.90;;;;;;;;;;5054681;28;20028;-69
2022/01/10 09:19:47;;;;;;;84.15;38.92;;;;;;;;;;5072698;28;20078;-68
2022/01/10 09:22:13;;;;;;;119.82;56.88;;;;;;;;;;5054286;28;20039;-70
2022/01/10 09:24:39;;;;;;;67.88;35.38;;;;;;;;;;5055690;28;20067;-69
2022/01/10 09:27:06;;;;;;;209.10;82.75;;;;;;;;;;5073807;28;20437;-68
2022/01/10 09:29:32;;;;;;;211.02;87.53;;;;;;;;;;5076157;28;20024;-69
2022/01/10 09:31:58;;;;;;;82.45;43.63;;;;;;;;;;5076207;28;20029;-68
2022/01/10 09:34:24;;;;;;;67.13;33.55;;;;;;;;;;5076403;28;20107;-71
2022/01/10 09:36:51;;;;;;;112.45;50.80;;;;;;;;;;5058402;28;20146;-71
2022/01/10 09:39:19;;;;;;;111.57;49.17;;;;;;;;;;5058227;28;20027;-70
2022/01/10 09:41:45;;;;;;;134.93;57.28;;;;;;;;;;5075990;28;20389;-67
2022/01/10 09:44:11;;;;;;;98.90;48.88;;;;;;;;;;5058285;28;20118;-69
2022/01/10 09:46:38;;;;;;;102.72;48.42;;;;;;;;;;5076401;28;20107;-68
2022/01/10 09:49:05;;;;;;;78.38;42.03;;;;;;;;;;5076384;28;20461;-68
2022/01/10 09:51:32;;;;;;;69.07;36.88;;;;;;;;;;5075834;28;20028;-68
2022/01/10 09:53:59;;;;;;;201.88;81.57;;;;;;;;;;5076091;28;20500;-66
2022/01/10 09:56:27;;;;;;;174.50;77.88;;;;;;;;;;5057901;28;20481;-67
2022/01/10 09:58:53;;;;;;;185.70;90.10;;;;;;;;;;5057956;28;20453;-66
2022/01/10 10:01:20;;;;;;;127.30;61.88;;;;;;;;;;5075848;28;20033;-66
2022/01/10 10:03:47;;;;;;;101.97;52.72;;;;;;;;;;5057460;28;20067;-64
2022/01/10 10:06:15;;;;;;;83.18;45.42;;;;;;;;;;5075796;28;20020;-64
2022/01/10 10:08:41;;;;;;;69.75;37.95;;;;;;;;;;5057861;28;20123;-66
2022/01/10 10:11:08;;;;;;;57.50;31.58;;;;;;;;;;5057697;28;20025;-64
2022/01/10 10:13:45;;;;;;;60.03;32.20;;;;;;;;;;5075678;28;20457;-65
2022/01/10 10:16:13;;;;;;;63.22;34.50;;;;;;;;;;5075652;28;20020;-66
2022/01/10 10:18:41;;;;;;;62.33;35.40;;;;;;;;;;5075596;28;20021;-67
2022/01/10 10:21:11;;;;;;;51.95;30.15;;;;;;;;;;5057085;28;20024;-68
2022/01/10 10:23:40;;;;;;;76.43;43.28;;;;;;;;;;5075607;28;20116;-66
2022/01/10 10:26:07;;;;;;;117.20;56.88;;;;;;;;;;5073416;28;20055;-66
2022/01/10 10:28:37;;;;;;;64.13;34.58;;;;;;;;;;5057290;28;20025;-63
2022/01/10 10:31:04;;;;;;;119.72;59.83;;;;;;;;;;5075578;28;20025;-63
2022/01/10 10:33:30;;;;;;;82.13;48.13;;;;;;;;;;5075441;28;20035;-68
2022/01/10 10:35:57;;;;;;;57.22;32.78;;;;;;;;;;5056064;28;20035;-66
2022/01/10 10:38:25;;;;;;;68.72;36.50;;;;;;;;;;5075266;28;20107;-66
2022/01/10 10:40:51;;;;;;;73.13;37.55;;;;;;;;;;5074985;28;20448;-69
2022/01/10 10:43:18;;;;;;;87.70;40.30;;;;;;;;;;5075330;28;20035;-67
2022/01/10 10:45:47;;;;;;;45.50;25.83;;;;;;;;;;5057226;28;20514;-68
2022/01/10 10:48:16;;;;;;;53.97;28.85;;;;;;;;;;5075280;28;20549;-67
2022/01/10 10:50:43;;;;;;;53.38;28.42;;;;;;;;;;5075029;28;20107;-67
2022/01/10 10:53:14;;;;;;;66.20;33.13;;;;;;;;;;5075100;28;20032;-67
2022/01/10 10:55:40;;;;;;;45.10;25.10;;;;;;;;;;5056885;28;20028;-67
2022/01/10 10:58:07;;;;;;;92.38;41.75;;;;;;;;;;5074939;28;20461;-69
2022/01/10 11:00:34;;;;;;;52.85;29.75;;;;;;;;;;5056820;28;20030;-67
2022/01/10 11:03:00;;;;;;;51.83;31.15;;;;;;;;;;5056433;28;20151;-67
2022/01/10 11:05:27;;;;;;;66.00;36.67;;;;;;;;;;5074892;28;20035;-68
2022/01/10 11:07:53;;;;;;;48.00;26.38;;;;;;;;;;5074784;28;20020;-67
2022/01/10 11:10:19;;;;;;;50.83;28.52;;;;;;;;;;5074768;28;20028;-67
2022/01/10 11:12:49;;;;;;;62.75;32.90;;;;;;;;;;5073759;28;20111;-67
2022/01/10 11:15:15;;;;;;;62.20;29.05;;;;;;;;;;5072480;28;20553;-67
2022/01/10 11:17:42;;;;;;;61.03;30.73;;;;;;;;;;5074364;28;20021;-67
2022/01/10 11:20:10;;;;;;;54.40;27.38;;;;;;;;;;5074612;28;20032;-67
2022/01/10 11:22:43;;;;;;;58.70;30.75;;;;;;;;;;5072297;28;20059;-66
2022/01/10 11:25:27;;;;;;;61.20;30.45;;;;;;;;;;5074381;28;20024;-67
2022/01/10 11:27:55;;;;;;;64.10;32.92;;;;;;;;;;5074409;28;20020;-67
2022/01/10 11:30:30;;;;;;;62.70;30.10;;;;;;;;;;5056378;28;20035;-67
2022/01/10 11:32:57;;;;;;;50.95;27.85;;;;;;;;;;5074149;28;20036;-68
2022/01/10 11:35:27;;;;;;;60.25;32.45;;;;;;;;;;5074197;28;20024;-68
2022/01/10 11:37:53;;;;;;;47.72;26.75;;;;;;;;;;5056417;28;20484;-69
2022/01/10 11:40:20;;;;;;;66.30;34.58;;;;;;;;;;5056114;28;20028;-67
2022/01/10 11:42:56;;;;;;;51.67;28.55;;;;;;;;;;5073596;28;20462;-67
2022/01/10 11:45:23;;;;;;;62.53;31.38;;;;;;;;;;5056174;28;20123;-68
2022/01/10 11:48:10;;;;;;;62.67;29.02;;;;;;;;;;5073803;28;20040;-66
2022/01/10 11:50:41;;;;;;;89.57;34.17;;;;;;;;;;5072200;28;20048;-66
2022/01/10 11:53:08;;;;;;;84.70;36.15;;;;;;;;;;5073599;28;20028;-65
2022/01/10 11:55:54;;;;;;;64.63;34.28;;;;;;;;;;5073840;28;20024;-65
2022/01/10 11:58:23;;;;;;;47.42;24.45;;;;;;;;;;5073695;28;20031;-66
2022/01/10 12:00:51;;;;;;;55.05;26.45;;;;;;;;;;5073820;28;20035;-66
2022/01/10 12:03:19;;;;;;;55.15;28.15;;;;;;;;;;5073280;28;20045;-66
2022/01/10 12:05:45;;;;;;;52.45;26.25;;;;;;;;;;5073683;28;20073;-64
2022/01/10 12:08:11;;;;;;;45.38;23.35;;;;;;;;;;5073899;28;20461;-66
2022/01/10 12:10:38;;;;;;;53.65;28.40;;;;;;;;;;5055393;28;20119;-66
2022/01/10 12:13:06;;;;;;;75.70;32.53;;;;;;;;;;5073633;28;20089;-66
2022/01/10 12:15:36;;;;;;;82.65;39.65;;;;;;;;;;5073526;28;20055;-66
2022/01/10 12:18:03;;;;;;;50.35;26.08;;;;;;;;;;5073569;28;20050;-67
2022/01/10 12:20:30;;;;;;;48.95;25.33;;;;;;;;;;5073734;28;20063;-70
2022/01/10 12:22:57;;;;;;;40.78;21.73;;;;;;;;;;5073007;28;20081;-71
2022/01/10 12:25:23;;;;;;;43.60;23.15;;;;;;;;;;5073348;28;20477;-71
2022/01/10 12:27:52;;;;;;;46.65;23.35;;;;;;;;;;5073323;28;20032;-73
2022/01/10 12:30:20;;;;;;;85.30;35.92;;;;;;;;;;5055209;28;20024;-73
2022/01/10 12:32:46;;;;;;;44.78;25.27;;;;;;;;;;5073214;28;20032;-70
2022/01/10 12:35:13;;;;;;;44.53;23.33;;;;;;;;;;5055153;28;20024;-71
2022/01/10 12:37:39;;;;;;;45.17;24.23;;;;;;;;;;5072868;28;20545;-68
2022/01/10 12:40:06;;;;;;;45.63;24.10;;;;;;;;;;5055281;28;20039;-68
2022/01/10 12:42:33;;;;;;;48.50;24.63;;;;;;;;;;5073346;28;20093;-72
2022/01/10 12:44:59;;;;;;;41.05;21.95;;;;;;;;;;5053238;28;20032;-69
2022/01/10 12:47:25;;;;;;;40.97;22.55;;;;;;;;;;5072509;28;20401;-68
2022/01/10 12:49:52;;;;;;;46.65;24.98;;;;;;;;;;5072815;28;20415;-68
2022/01/10 12:52:20;;;;;;;49.78;23.60;;;;;;;;;;5072901;28;20078;-68
2022/01/10 12:54:46;;;;;;;46.15;23.55;;;;;;;;;;5072777;28;20029;-69
2022/01/10 12:57:13;;;;;;;49.95;24.70;;;;;;;;;;5072843;28;20029;-70
2022/01/10 12:59:39;;;;;;;46.97;24.15;;;;;;;;;;5072374;28;20060;-69
2022/01/10 13:02:06;;;;;;;46.53;22.83;;;;;;;;;;5072796;28;20025;-72
2022/01/10 13:04:35;;;;;;;52.47;25.35;;;;;;;;;;5051200;28;20134;-72
2022/01/10 13:07:02;;;;;;;53.92;28.02;;;;;;;;;;5052477;28;20458;-67
2022/01/10 13:09:28;;;;;;;52.97;25.63;;;;;;;;;;5052634;28;20025;-67
2022/01/10 13:12:11;;;;;;;54.97;27.40;;;;;;;;;;5049047;28;20025;-66
2022/01/10 13:14:37;;;;;;;57.55;29.48;;;;;;;;;;5050917;28;20541;-68
2022/01/10 13:17:08;;;;;;;58.55;30.15;;;;;;;;;;5052536;28;20021;-69
2022/01/10 13:19:36;;;;;;;69.03;37.13;;;;;;;;;;5051370;28;20025;-68
2022/01/10 13:22:07;;;;;;;92.53;45.85;;;;;;;;;;5052508;28;20017;-69
2022/01/10 13:24:34;;;;;;;;;;;;;;;;;;5052809;28;20056;-63
2022/01/10 13:27:01;;;;;;;83.55;40.65;;;;;;;;;;5051011;28;19905;-65
2022/01/10 13:29:34;;;;;;;93.35;45.45;;;;;;;;;;5051151;28;20108;-69
2022/01/10 13:32:17;;;;;;;83.28;40.85;;;;;;;;;;5052493;28;20017;-64
2022/01/10 13:34:43;;;;;;;55.88;28.63;;;;;;;;;;5052087;28;20024;-68
2022/01/10 13:37:10;;;;;;;53.45;27.45;;;;;;;;;;5052374;28;20160;-66
2022/01/10 13:39:36;;;;;;;59.42;29.15;;;;;;;;;;5052200;28;20035;-66
2022/01/10 13:42:05;;;;;;;65.63;31.73;;;;;;;;;;5052312;28;20024;-64
2022/01/10 13:44:32;;;;;;;61.13;28.88;;;;;;;;;;5052114;28;20029;-70
2022/01/10 13:47:01;;;;;;;63.75;32.85;;;;;;;;;;5052136;28;20021;-68
2022/01/10 13:49:28;;;;;;;56.35;29.95;;;;;;;;;;5052096;28;20025;-68
2022/01/10 13:52:08;;;;;;;59.70;28.80;;;;;;;;;;5052303;28;20382;-66
2022/01/10 13:54:34;;;;;;;64.72;33.80;;;;;;;;;;5051784;28;20023;-65
2022/01/10 13:57:14;;;;;;;63.83;30.38;;;;;;;;;;5052272;28;20163;-67
2022/01/10 13:59:40;;;;;;;69.45;29.73;;;;;;;;;;5051828;28;20028;-66
2022/01/10 14:02:06;;;;;;;68.13;31.77;;;;;;;;;;5051365;28;20104;-66
2022/01/10 14:04:34;;;;;;;59.10;27.77;;;;;;;;;;5068571;28;20048;-68
2022/01/10 14:07:11;;;;;;;55.65;27.25;;;;;;;;;;5072075;28;20044;-65
2022/01/10 14:09:37;;;;;;;72.60;33.03;;;;;;;;;;5071858;28;20032;-67
2022/01/10 14:12:04;;;;;;;69.15;32.38;;;;;;;;;;5073752;28;20112;-67
2022/01/10 14:14:31;;;;;;;114.80;55.15;;;;;;;;;;5075694;28;20044;-64
2022/01/10 14:16:57;;;;;;;127.20;46.33;;;;;;;;;;5075857;28;20025;-66
2022/01/10 14:19:24;;;;;;;100.75;45.53;;;;;;;;;;5075638;28;20104;-71
2022/01/10 14:21:51;;;;;;;65.45;30.90;;;;;;;;;;5057494;28;20052;-66
2022/01/10 14:24:20;;;;;;;76.13;33.67;;;;;;;;;;5072889;28;20457;-67